createdAt,value
2023-05-03T00:00:41.284Z,100712.62
2023-05-03T00:03:13.895Z,100715.39
2023-05-03T00:05:43.364Z,100716.91
2023-05-03T00:08:11.744Z,100719.33
2023-05-03T00:10:40.788Z,100718.80
2023-05-03T00:13:09.873Z,100719.69
2023-05-03T00:15:38.614Z,100722.46
2023-05-03T00:18:10.757Z,100720.41
2023-05-03T00:20:39.028Z,100717.83
2023-05-03T00:23:08.975Z,100719.42
2023-05-03T00:25:37.547Z,100719.09
2023-05-03T00:28:05.863Z,100724.14
2023-05-03T00:30:34.022Z,100723.77
2023-05-03T00:33:02.331Z,100725.13
2023-05-03T00:35:33.623Z,100725.27
2023-05-03T00:38:02.612Z,100725.42
2023-05-03T00:40:31.200Z,100723.85
2023-05-03T00:42:59.397Z,100725.45
2023-05-03T00:45:29.665Z,100724.62
2023-05-03T00:47:58.837Z,100723.97
2023-05-03T00:50:27.184Z,100729.06
2023-05-03T00:52:55.425Z,100727.39
2023-05-03T00:55:27.214Z,100730.38
2023-05-03T00:57:55.525Z,100731.99
2023-05-03T01:00:24.792Z,100733.40
2023-05-03T01:02:53.001Z,100735.86
2023-05-03T01:05:23.202Z,100735.36
2023-05-03T01:08:21.325Z,100733.13
2023-05-03T01:11:00.828Z,100731.34
2023-05-03T01:13:42.903Z,100729.41
2023-05-03T01:16:16.640Z,100730.15
2023-05-03T01:18:49.888Z,100736.05
2023-05-03T01:21:19.465Z,100731.89
2023-05-03T01:24:07.078Z,100730.14
2023-05-03T01:26:35.337Z,100730.14
2023-05-03T01:29:04.171Z,100732.89
2023-05-03T01:31:41.767Z,100732.52
2023-05-03T01:34:16.004Z,100736.30
2023-05-03T01:36:46.203Z,100733.14
2023-05-03T01:39:21.348Z,100736.07
2023-05-03T01:41:54.432Z,100735.36
2023-05-03T01:44:23.761Z,100732.40
2023-05-03T01:46:52.644Z,100733.25
2023-05-03T01:49:22.348Z,100731.66
2023-05-03T01:51:50.467Z,100731.50
2023-05-03T01:54:19.297Z,100730.59
2023-05-03T01:56:47.640Z,100734.21
2023-05-03T01:59:16.386Z,100731.52
2023-05-03T02:01:45.239Z,100729.22
2023-05-03T02:04:14.005Z,100732.32
2023-05-03T02:06:43.091Z,100736.11
2023-05-03T02:09:11.747Z,100734.68
2023-05-03T02:11:40.003Z,100736.06
2023-05-03T02:14:08.420Z,100735.34
2023-05-03T02:16:36.789Z,100734.27
2023-05-03T02:19:05.669Z,100726.73
2023-05-03T02:21:35.509Z,100730.34
2023-05-03T02:24:04.020Z,100726.48
2023-05-03T02:26:32.094Z,100729.73
2023-05-03T02:29:00.667Z,100727.05
2023-05-03T02:31:29.204Z,100727.70
2023-05-03T02:33:57.401Z,100728.04
2023-05-03T02:36:25.591Z,100732.41
2023-05-03T02:38:54.414Z,100733.48
2023-05-03T02:41:22.701Z,100732.25
2023-05-03T02:43:51.284Z,100729.44
2023-05-03T02:46:19.411Z,100732.20
2023-05-03T02:48:47.566Z,100733.44
2023-05-03T02:51:15.762Z,100736.72
2023-05-03T02:53:43.879Z,100733.40
2023-05-03T02:56:12.382Z,100734.81
2023-05-03T02:58:40.438Z,100742.63
2023-05-03T03:01:08.697Z,100741.91
2023-05-03T03:03:36.922Z,100745.90
2023-05-03T03:06:06.056Z,100747.98
2023-05-03T03:08:34.594Z,100745.02
2023-05-03T03:11:03.879Z,100745.55
2023-05-03T03:13:32.065Z,100745.20
2023-05-03T03:16:00.275Z,100748.20
2023-05-03T03:18:29.126Z,100747.02
2023-05-03T03:20:57.251Z,100748.61
2023-05-03T03:23:25.323Z,100751.08
2023-05-03T03:25:53.529Z,100751.80
2023-05-03T03:28:22.286Z,100752.89
2023-05-03T03:30:51.000Z,100753.08
2023-05-03T03:33:19.223Z,100756.26
2023-05-03T03:35:47.396Z,100754.88
2023-05-03T03:38:15.622Z,100756.46
2023-05-03T03:40:43.872Z,100761.00
2023-05-03T03:43:12.204Z,100759.09
2023-05-03T03:45:40.528Z,100759.80
2023-05-03T03:48:09.237Z,100760.52
2023-05-03T03:50:37.787Z,100762.64
2023-05-03T03:53:06.846Z,100767.02
2023-05-03T03:55:35.171Z,100770.33
2023-05-03T03:58:03.740Z,100770.14
2023-05-03T04:00:31.995Z,100774.98
2023-05-03T04:03:00.410Z,100774.96
2023-05-03T04:05:28.680Z,100777.55
2023-05-03T04:07:56.851Z,100780.31
2023-05-03T04:10:25.443Z,100785.86
2023-05-03T04:12:54.097Z,100785.14
2023-05-03T04:15:22.235Z,100788.77
2023-05-03T04:17:50.361Z,100795.91
2023-05-03T04:20:19.417Z,100799.90
2023-05-03T04:22:47.796Z,100800.73
2023-05-03T04:25:17.424Z,100805.77
2023-05-03T04:27:46.877Z,100809.23
2023-05-03T04:30:15.721Z,100815.83
2023-05-03T04:32:44.145Z,100817.17
2023-05-03T04:35:12.813Z,100819.92
2023-05-03T04:37:42.188Z,100823.38
2023-05-03T04:40:12.489Z,100826.68
2023-05-03T04:42:41.320Z,100827.69
2023-05-03T04:45:12.225Z,100831.31
2023-05-03T04:47:40.853Z,100837.02
2023-05-03T04:50:11.390Z,100838.42
2023-05-03T04:52:40.373Z,100838.41
2023-05-03T04:55:09.122Z,100838.14
2023-05-03T04:57:37.438Z,100840.81
2023-05-03T05:00:11.573Z,100842.11
2023-05-03T05:02:39.997Z,100840.05
2023-05-03T05:05:09.799Z,100843.28
2023-05-03T05:07:38.171Z,100846.76
2023-05-03T05:10:07.398Z,100848.61
2023-05-03T05:12:40.258Z,100850.78
2023-05-03T05:15:09.603Z,100847.88
2023-05-03T05:17:41.448Z,100853.59
2023-05-03T05:20:12.602Z,100855.15
2023-05-03T05:22:41.418Z,100859.52
2023-05-03T05:25:10.587Z,100859.29
2023-05-03T05:27:41.632Z,100861.26
2023-05-03T05:30:10.270Z,100859.58
2023-05-03T05:32:45.964Z,100862.26
2023-05-03T05:35:17.730Z,100865.63
2023-05-03T05:37:46.524Z,100868.63
2023-05-03T05:40:15.728Z,100868.80
2023-05-03T05:42:48.780Z,100870.26
2023-05-03T05:45:20.191Z,100871.77
2023-05-03T05:47:53.455Z,100874.27
2023-05-03T05:50:24.621Z,100871.28
2023-05-03T05:52:55.793Z,100869.73
2023-05-03T05:55:26.858Z,100868.05
2023-05-03T05:57:55.311Z,100872.14
2023-05-03T06:00:26.780Z,100874.39
2023-05-03T06:02:55.162Z,100874.46
2023-05-03T06:05:23.841Z,100876.55
2023-05-03T06:07:54.837Z,100879.67
2023-05-03T06:10:23.066Z,100881.11
2023-05-03T06:12:54.589Z,100876.86
2023-05-03T06:15:23.172Z,100881.95
2023-05-03T06:17:51.941Z,100883.00
2023-05-03T06:20:20.792Z,100884.82
2023-05-03T06:22:48.989Z,100885.79
2023-05-03T06:25:18.156Z,100881.23
2023-05-03T06:27:46.596Z,100881.30
2023-05-03T06:30:16.203Z,100880.55
2023-05-03T06:32:49.056Z,100883.56
2023-05-03T06:35:19.740Z,100879.48
2023-05-03T06:37:48.642Z,100885.29
2023-05-03T06:40:17.084Z,100881.50
2023-05-03T06:42:45.258Z,100880.95
2023-05-03T06:45:13.488Z,100880.24
2023-05-03T06:47:43.300Z,100878.86
2023-05-03T06:50:12.173Z,100883.45
2023-05-03T06:52:40.499Z,100882.08
2023-05-03T06:55:11.686Z,100878.85
2023-05-03T06:57:42.817Z,100878.23
2023-05-03T07:00:11.471Z,100879.76
2023-05-03T07:02:40.281Z,100883.25
2023-05-03T07:05:09.081Z,100886.47
2023-05-03T07:07:37.494Z,100888.30
2023-05-03T07:10:15.584Z,100885.64
2023-05-03T07:12:52.839Z,100890.17
2023-05-03T07:15:21.418Z,100890.05
2023-05-03T07:17:50.095Z,100895.16
2023-05-03T07:20:18.336Z,100897.67
2023-05-03T07:22:46.857Z,100892.04
2023-05-03T07:25:18.031Z,100892.80
2023-05-03T07:27:46.405Z,100892.58
2023-05-03T07:30:15.249Z,100897.09
2023-05-03T07:32:44.750Z,100898.09
2023-05-03T07:35:13.066Z,100897.83
2023-05-03T07:37:41.126Z,100893.02
2023-05-03T07:40:12.503Z,100892.92
2023-05-03T07:42:41.116Z,100893.02
2023-05-03T07:45:10.165Z,100891.94
2023-05-03T07:47:40.339Z,100893.98
2023-05-03T07:50:09.611Z,100892.83
2023-05-03T07:52:39.754Z,100893.53
2023-05-03T07:55:08.789Z,100893.02
2023-05-03T07:57:37.124Z,100888.44
2023-05-03T08:00:06.313Z,100892.46
2023-05-03T08:02:35.054Z,100893.46
2023-05-03T08:05:05.580Z,100884.95
2023-05-03T08:07:34.341Z,100880.91
2023-05-03T08:10:03.093Z,100884.81
2023-05-03T08:12:31.600Z,100885.44
2023-05-03T08:14:59.756Z,100893.55
2023-05-03T08:17:28.149Z,100895.56
2023-05-03T08:19:57.200Z,100893.87
2023-05-03T08:22:27.124Z,100891.47
2023-05-03T08:24:56.730Z,100891.12
2023-05-03T08:27:26.262Z,100891.36
2023-05-03T08:29:54.694Z,100887.73
2023-05-03T08:32:24.124Z,100889.27
2023-05-03T08:34:53.456Z,100888.58
2023-05-03T08:37:21.909Z,100885.35
2023-05-03T08:39:51.592Z,100888.70
2023-05-03T08:42:20.358Z,100889.98
2023-05-03T08:44:49.763Z,100891.46
2023-05-03T08:47:17.975Z,100893.39
2023-05-03T08:49:47.507Z,100892.20
2023-05-03T08:52:18.527Z,100895.48
2023-05-03T08:54:47.331Z,100893.40
2023-05-03T08:57:18.031Z,100891.29
2023-05-03T09:00:01.247Z,100890.59
2023-05-03T09:02:30.571Z,100886.48
2023-05-03T09:04:59.180Z,100875.10
2023-05-03T09:07:28.088Z,100878.42
2023-05-03T09:09:58.286Z,100872.75
2023-05-03T09:12:37.891Z,100874.52
2023-05-03T09:15:09.112Z,100870.39
2023-05-03T09:17:37.639Z,100878.21
2023-05-03T09:20:09.158Z,100891.08
2023-05-03T09:22:50.268Z,100891.30
2023-05-03T09:25:18.486Z,100892.09
2023-05-03T09:28:01.964Z,100886.16
2023-05-03T09:30:30.736Z,100889.20
2023-05-03T09:33:07.053Z,100883.16
2023-05-03T09:35:38.599Z,100884.06
2023-05-03T09:38:07.365Z,100879.94
2023-05-03T09:40:47.203Z,100878.25
2023-05-03T09:43:18.726Z,100876.04
2023-05-03T09:45:49.117Z,100876.23
2023-05-03T09:48:19.139Z,100875.46
2023-05-03T09:50:47.666Z,100885.73
2023-05-03T09:53:20.146Z,100888.13
2023-05-03T09:55:51.139Z,100885.49
2023-05-03T09:58:21.024Z,100889.83
2023-05-03T10:00:52.615Z,100883.09
2023-05-03T10:03:53.142Z,100878.66
2023-05-03T10:06:44.228Z,100872.42
2023-05-03T10:09:32.429Z,100869.94
2023-05-03T10:12:12.063Z,100870.16
2023-05-03T10:14:54.052Z,100873.44
2023-05-03T10:17:47.367Z,100872.55
2023-05-03T10:20:36.296Z,100861.93
2023-05-03T10:23:04.471Z,100856.45
2023-05-03T10:25:37.982Z,100857.39
2023-05-03T10:28:12.801Z,100855.75
2023-05-03T10:30:41.988Z,100852.34
2023-05-03T10:33:13.470Z,100852.46
2023-05-03T10:35:51.371Z,100845.75
2023-05-03T10:38:27.310Z,100840.66
2023-05-03T10:41:07.428Z,100838.02
2023-05-03T10:43:36.164Z,100845.84
2023-05-03T10:46:12.472Z,100845.50
2023-05-03T10:49:22.199Z,100844.86
2023-05-03T10:51:51.161Z,100842.96
2023-05-03T10:54:20.106Z,100840.33
2023-05-03T10:56:57.668Z,100838.07
2023-05-03T10:59:53.273Z,100837.80
2023-05-03T11:02:38.453Z,100831.95
2023-05-03T11:05:28.718Z,100830.26
2023-05-03T11:08:21.336Z,100831.41
2023-05-03T11:10:58.991Z,100831.26
2023-05-03T11:13:28.239Z,100836.26
2023-05-03T11:16:34.107Z,100838.38
2023-05-03T11:19:06.481Z,100836.84
2023-05-03T11:21:35.427Z,100839.65
2023-05-03T11:24:07.493Z,100838.59
2023-05-03T11:26:45.954Z,100839.88
2023-05-03T11:29:18.867Z,100836.85
2023-05-03T11:31:51.992Z,100839.73
2023-05-03T11:34:21.027Z,100839.14
2023-05-03T11:37:00.026Z,100840.90
2023-05-03T11:39:28.817Z,100829.50
2023-05-03T11:42:06.658Z,100825.73
2023-05-03T11:44:36.218Z,100829.05
2023-05-03T11:47:05.145Z,100826.95
2023-05-03T11:49:34.346Z,100825.13
2023-05-03T11:52:06.278Z,100826.00
2023-05-03T11:54:36.639Z,100825.69
2023-05-03T11:57:16.858Z,100825.91
2023-05-03T11:59:49.912Z,100825.39
2023-05-03T12:02:18.837Z,100823.89
2023-05-03T12:04:47.920Z,100820.42
2023-05-03T12:07:19.462Z,100826.98
2023-05-03T12:10:01.146Z,100831.25
2023-05-03T12:12:37.127Z,100826.63
2023-05-03T12:15:08.214Z,100827.04
2023-05-03T12:17:39.645Z,100822.83
2023-05-03T12:23:15.209Z,100816.07
2023-05-03T12:25:54.784Z,100819.21
2023-05-03T12:28:26.438Z,100820.48
2023-05-03T12:31:13.010Z,100818.73
2023-05-03T12:33:43.662Z,100821.98
2023-05-03T12:36:14.930Z,100819.35
2023-05-03T12:38:49.083Z,100821.70
2023-05-03T12:41:52.168Z,100823.08
2023-05-03T12:44:15.870Z,100820.34
2023-05-03T12:46:46.168Z,100821.38
2023-05-03T12:49:15.651Z,100816.95
2023-05-03T12:51:55.492Z,100816.01
2023-05-03T12:54:41.470Z,100807.86
2023-05-03T12:57:23.455Z,100804.18
2023-05-03T13:00:01.924Z,100798.30
2023-05-03T13:05:11.989Z,100793.91
2023-05-03T13:07:56.950Z,100792.02
2023-05-03T13:10:37.228Z,100789.98
2023-05-03T13:13:11.563Z,100791.43
2023-05-03T13:15:54.775Z,100781.26
2023-05-03T13:18:57.615Z,100794.07
2023-05-03T13:21:29.577Z,100794.91
2023-05-03T13:24:23.162Z,100796.50
2023-05-03T13:26:55.157Z,100791.05
2023-05-03T13:29:24.503Z,100785.33
2023-05-03T13:31:53.443Z,100777.84
2023-05-03T13:34:29.554Z,100777.80
2023-05-03T13:37:05.457Z,100775.36
2023-05-03T13:39:37.670Z,100771.49
2023-05-03T13:42:09.977Z,100773.16
2023-05-03T13:44:42.708Z,100774.62
2023-05-03T13:47:11.493Z,100776.66
2023-05-03T13:49:40.495Z,100773.76
2023-05-03T13:52:09.137Z,100769.83
2023-05-03T13:54:42.671Z,100762.94
2023-05-03T13:57:13.519Z,100764.96
2023-05-03T13:59:42.673Z,100761.40
2023-05-03T14:02:20.123Z,100757.98
2023-05-03T14:04:57.993Z,100754.59
2023-05-03T14:07:32.905Z,100754.44
2023-05-03T14:10:06.226Z,100751.27
2023-05-03T14:12:38.056Z,100747.15
2023-05-03T14:15:09.710Z,100749.72
2023-05-03T14:17:40.828Z,100755.27
2023-05-03T14:20:12.310Z,100759.52
2023-05-03T14:22:41.745Z,100753.78
2023-05-03T14:25:13.149Z,100756.23
2023-05-03T14:27:44.943Z,100757.46
2023-05-03T14:30:16.040Z,100748.05
2023-05-03T14:32:47.986Z,100749.03
2023-05-03T14:35:18.602Z,100754.13
2023-05-03T14:37:47.367Z,100755.92
2023-05-03T14:40:17.827Z,100755.48
2023-05-03T14:42:46.176Z,100755.08
2023-05-03T14:45:15.148Z,100752.53
2023-05-03T14:47:43.418Z,100751.98
2023-05-03T14:50:11.772Z,100753.75
2023-05-03T14:52:40.177Z,100751.31
2023-05-03T14:55:09.515Z,100748.80
2023-05-03T14:57:38.393Z,100747.83
2023-05-03T15:00:14.130Z,100749.32
2023-05-03T15:02:42.818Z,100753.92
2023-05-03T15:05:12.205Z,100754.77
2023-05-03T15:07:41.023Z,100756.45
2023-05-03T15:10:10.214Z,100750.85
2023-05-03T15:12:39.653Z,100750.44
2023-05-03T15:15:15.897Z,100751.84
2023-05-03T15:17:44.201Z,100748.04
2023-05-03T15:20:15.540Z,100748.04
2023-05-03T15:22:44.112Z,100750.27
2023-05-03T15:25:12.503Z,100746.64
2023-05-03T15:27:41.199Z,100747.78
2023-05-03T15:30:12.371Z,100742.69
2023-05-03T15:32:41.299Z,100747.11
2023-05-03T15:35:10.097Z,100746.98
2023-05-03T15:37:38.271Z,100745.18
2023-05-03T15:40:09.590Z,100747.83
2023-05-03T15:42:38.861Z,100746.65
2023-05-03T15:45:11.425Z,100743.64
2023-05-03T15:47:40.132Z,100742.41
2023-05-03T15:50:10.496Z,100744.36
2023-05-03T15:52:38.990Z,100747.23
2023-05-03T15:55:09.608Z,100743.92
2023-05-03T15:57:38.124Z,100743.20
2023-05-03T16:00:12.012Z,100742.13
2023-05-03T16:02:40.905Z,100744.30
2023-05-03T16:05:11.921Z,100738.80
2023-05-03T16:07:41.537Z,100734.98
2023-05-03T16:10:11.155Z,100737.27
2023-05-03T16:12:39.514Z,100733.96
2023-05-03T16:15:19.743Z,100724.78
2023-05-03T16:17:48.724Z,100724.16
2023-05-03T16:20:16.964Z,100727.55
2023-05-03T16:22:46.173Z,100727.52
2023-05-03T16:25:16.423Z,100725.65
2023-05-03T16:27:45.650Z,100726.52
2023-05-03T16:30:15.371Z,100726.97
2023-05-03T16:32:43.984Z,100725.58
2023-05-03T16:35:14.014Z,100723.20
2023-05-03T16:37:43.293Z,100724.39
2023-05-03T16:40:12.438Z,100719.79
2023-05-03T16:42:42.734Z,100718.27
2023-05-03T16:45:12.178Z,100717.65
2023-05-03T16:47:41.092Z,100716.91
2023-05-03T16:50:10.021Z,100715.04
2023-05-03T16:52:39.665Z,100712.61
2023-05-03T16:55:13.448Z,100709.15
2023-05-03T16:57:42.144Z,100707.92
2023-05-03T17:00:11.677Z,100714.32
2023-05-03T17:02:41.393Z,100714.27
2023-05-03T17:05:13.018Z,100716.58
2023-05-03T17:07:42.147Z,100711.04
2023-05-03T17:10:13.815Z,100716.29
2023-05-03T17:12:42.249Z,100715.27
2023-05-03T17:15:11.044Z,100716.44
2023-05-03T17:17:40.683Z,100718.47
2023-05-03T17:20:11.079Z,100719.25
2023-05-03T17:22:39.686Z,100718.89
2023-05-03T17:25:09.927Z,100718.58
2023-05-03T17:27:51.931Z,100723.73
2023-05-03T17:30:21.201Z,100724.66
2023-05-03T17:32:50.110Z,100727.02
2023-05-03T17:35:18.993Z,100728.32
2023-05-03T17:37:48.013Z,100729.27
2023-05-03T17:40:16.666Z,100730.16
2023-05-03T17:42:47.124Z,100732.73
2023-05-03T17:45:19.750Z,100731.12
2023-05-03T17:48:00.807Z,100733.48
2023-05-03T17:50:32.633Z,100732.52
2023-05-03T17:53:01.690Z,100732.16
2023-05-03T17:55:35.578Z,100736.67
2023-05-03T17:58:04.030Z,100738.48
2023-05-03T18:00:33.396Z,100736.27
2023-05-03T18:03:02.451Z,100731.95
2023-05-03T18:05:36.924Z,100734.13
2023-05-03T18:08:08.472Z,100736.06
2023-05-03T18:10:38.577Z,100735.45
2023-05-03T18:13:12.961Z,100738.15
2023-05-03T18:15:42.446Z,100742.63
2023-05-03T18:18:10.993Z,100741.27
2023-05-03T18:20:39.739Z,100744.42
2023-05-03T18:23:08.132Z,100743.80
2023-05-03T18:25:36.400Z,100743.52
2023-05-03T18:28:04.995Z,100742.59
2023-05-03T18:30:33.315Z,100747.77
2023-05-03T18:33:02.904Z,100746.73
2023-05-03T18:35:31.124Z,100747.52
2023-05-03T18:37:59.521Z,100751.19
2023-05-03T18:40:30.413Z,100750.49
2023-05-03T18:42:58.752Z,100756.02
2023-05-03T18:45:27.206Z,100757.80
2023-05-03T18:47:57.767Z,100759.66
2023-05-03T18:50:26.605Z,100757.65
2023-05-03T18:53:03.043Z,100755.92
2023-05-03T18:55:34.739Z,100758.37
2023-05-03T18:58:06.609Z,100759.03
2023-05-03T19:00:44.496Z,100759.71
2023-05-03T19:03:16.656Z,100763.16
2023-05-03T19:05:48.085Z,100766.88
2023-05-03T19:08:17.243Z,100764.95
2023-05-03T19:10:49.430Z,100762.79
2023-05-03T19:13:18.211Z,100762.85
2023-05-03T19:15:50.027Z,100766.75
2023-05-03T19:18:28.008Z,100769.19
2023-05-03T19:21:02.398Z,100769.74
2023-05-03T19:23:33.960Z,100772.55
2023-05-03T19:26:06.754Z,100772.14
2023-05-03T19:28:37.929Z,100773.30
2023-05-03T19:31:06.943Z,100775.06
2023-05-03T19:33:55.522Z,100772.45
2023-05-03T19:36:31.911Z,100770.89
2023-05-03T19:39:21.099Z,100775.65
2023-05-03T19:41:50.653Z,100773.65
2023-05-03T19:44:22.677Z,100776.88
2023-05-03T19:46:53.262Z,100775.71
2023-05-03T19:49:24.122Z,100778.79
2023-05-03T19:51:56.237Z,100780.78
2023-05-03T19:54:26.386Z,100776.39
2023-05-03T19:56:55.554Z,100775.16
2023-05-03T19:59:24.563Z,100774.80
2023-05-03T20:02:04.483Z,100771.39
2023-05-03T20:04:37.710Z,100772.20
2023-05-03T20:07:15.387Z,100774.89
2023-05-03T20:09:44.502Z,100772.35
2023-05-03T20:12:13.792Z,100773.42
2023-05-03T20:14:42.100Z,100777.33
2023-05-03T20:17:10.800Z,100775.92
2023-05-03T20:19:42.392Z,100781.02
2023-05-03T20:22:13.616Z,100785.42
2023-05-03T20:24:42.253Z,100784.24
2023-05-03T20:27:10.951Z,100782.20
2023-05-03T20:29:52.024Z,100777.91
2023-05-03T20:32:29.993Z,100779.40
2023-05-03T20:35:07.341Z,100779.30
2023-05-03T20:37:36.389Z,100782.98
2023-05-03T20:40:07.908Z,100786.26
2023-05-03T20:42:36.557Z,100787.24
2023-05-03T20:45:05.740Z,100784.23
2023-05-03T20:47:34.202Z,100788.19
2023-05-03T20:50:03.187Z,100791.17
2023-05-03T20:52:31.556Z,100791.17
2023-05-03T20:55:03.888Z,100791.54
2023-05-03T20:57:32.263Z,100792.09
2023-05-03T21:00:02.722Z,100792.95
2023-05-03T21:02:32.333Z,100788.85
2023-05-03T21:05:03.731Z,100786.54
2023-05-03T21:07:32.071Z,100788.72
2023-05-03T21:10:01.159Z,100783.76
2023-05-03T21:12:38.781Z,100787.52
2023-05-03T21:15:10.523Z,100790.06
2023-05-03T21:17:39.086Z,100788.70
2023-05-03T21:20:17.255Z,100782.64
2023-05-03T21:22:46.278Z,100779.15
2023-05-03T21:25:14.604Z,100776.23
2023-05-03T21:27:46.546Z,100774.72
2023-05-03T21:30:15.488Z,100766.11
2023-05-03T21:32:46.238Z,100764.65
2023-05-03T21:35:14.518Z,100761.42
2023-05-03T21:37:47.378Z,100761.15
2023-05-03T21:40:16.399Z,100768.23
2023-05-03T21:42:53.761Z,100771.09
2023-05-03T21:45:23.323Z,100772.05
2023-05-03T21:47:51.738Z,100776.34
2023-05-03T21:50:36.678Z,100778.15
2023-05-03T21:53:22.006Z,100777.27
2023-05-03T21:56:01.936Z,100774.48
2023-05-03T21:58:30.476Z,100774.02
2023-05-03T22:01:01.363Z,100772.67
2023-05-03T22:03:30.131Z,100772.71
2023-05-03T22:05:59.293Z,100771.66
2023-05-03T22:08:48.424Z,100769.04
2023-05-03T22:11:19.654Z,100769.95
2023-05-03T22:14:06.741Z,100767.56
2023-05-03T22:16:39.062Z,100770.63
2023-05-03T22:19:08.102Z,100769.83
2023-05-03T22:21:36.429Z,100771.28
2023-05-03T22:24:04.940Z,100769.76
2023-05-03T22:26:33.225Z,100775.03
2023-05-03T22:29:17.928Z,100771.80
2023-05-03T22:32:03.200Z,100769.86
2023-05-03T22:34:31.941Z,100763.86
2023-05-03T22:37:00.186Z,100760.94
2023-05-03T22:39:28.848Z,100757.34
2023-05-03T22:41:57.335Z,100761.55
2023-05-03T22:44:25.816Z,100760.94
2023-05-03T22:46:54.051Z,100763.65
2023-05-03T22:49:31.794Z,100760.91
2023-05-03T22:52:00.143Z,100766.70
2023-05-03T22:54:28.919Z,100762.02
2023-05-03T22:56:58.759Z,100761.01
2023-05-03T22:59:27.069Z,100758.23
2023-05-03T23:01:58.351Z,100761.17
2023-05-03T23:04:26.855Z,100759.39
2023-05-03T23:06:55.200Z,100761.96
2023-05-03T23:09:23.892Z,100759.44
2023-05-03T23:11:52.257Z,100759.02
2023-05-03T23:14:20.864Z,100757.13
2023-05-03T23:16:49.483Z,100757.36
2023-05-03T23:19:28.337Z,100756.14
2023-05-03T23:21:59.697Z,100757.34
2023-05-03T23:24:30.745Z,100756.64
2023-05-03T23:26:59.154Z,100750.27
2023-05-03T23:29:28.509Z,100751.02
2023-05-03T23:32:07.221Z,100751.08
2023-05-03T23:34:56.643Z,100749.95
2023-05-03T23:37:25.007Z,100745.39
2023-05-03T23:39:53.797Z,100746.82
2023-05-03T23:42:43.588Z,100741.95
2023-05-03T23:45:39.719Z,100741.17
2023-05-03T23:48:10.791Z,100741.79
2023-05-03T23:50:59.519Z,100739.41
2023-05-03T23:53:28.386Z,100737.64
2023-05-03T23:55:56.904Z,100733.66
2023-05-03T23:58:35.815Z,100730.60
